sensor_id;sensor_type;location;lat;lon;timestamp;P1;durP1;ratioP1;P2;durP2;ratioP2
16242;SDS011;11719;51.052;6.982;2023-12-20T00:00:48;5.37;;;3.50;;
16242;SDS011;11719;51.052;6.982;2023-12-20T00:03:13;5.10;;;2.80;;
16242;SDS011;11719;51.052;6.982;2023-12-20T00:05:39;4.67;;;2.90;;
16242;SDS011;11719;51.052;6.982;2023-12-20T00:08:06;6.33;;;3.80;;
16242;SDS011;11719;51.052;6.982;2023-12-20T00:10:32;5.67;;;3.90;;
16242;SDS011;11719;51.052;6.982;2023-12-20T00:12:57;4.97;;;3.30;;
16242;SDS011;11719;51.052;6.982;2023-12-20T00:15:23;4.50;;;3.30;;
16242;SDS011;11719;51.052;6.982;2023-12-20T00:17:51;4.33;;;3.77;;
16242;SDS011;11719;51.052;6.982;2023-12-20T00:20:20;4.30;;;2.80;;
16242;SDS011;11719;51.052;6.982;2023-12-20T00:22:45;5.13;;;3.23;;
16242;SDS011;11719;51.052;6.982;2023-12-20T00:25:11;5.83;;;3.60;;
16242;SDS011;11719;51.052;6.982;2023-12-20T00:27:37;5.57;;;3.53;;
16242;SDS011;11719;51.052;6.982;2023-12-20T00:30:10;3.63;;;2.20;;
16242;SDS011;11719;51.052;6.982;2023-12-20T00:32:36;3.40;;;1.93;;
16242;SDS011;11719;51.052;6.982;2023-12-20T00:35:02;3.20;;;1.57;;
16242;SDS011;11719;51.052;6.982;2023-12-20T00:37:28;2.03;;;1.27;;
16242;SDS011;11719;51.052;6.982;2023-12-20T00:39:54;2.23;;;1.33;;
16242;SDS011;11719;51.052;6.982;2023-12-20T00:42:19;3.60;;;1.20;;
16242;SDS011;11719;51.052;6.982;2023-12-20T00:44:45;2.30;;;1.30;;
16242;SDS011;11719;51.052;6.982;2023-12-20T00:47:11;2.23;;;1.27;;
16242;SDS011;11719;51.052;6.982;2023-12-20T00:49:38;1.57;;;1.10;;
16242;SDS011;11719;51.052;6.982;2023-12-20T00:52:04;3.40;;;1.57;;
16242;SDS011;11719;51.052;6.982;2023-12-20T00:54:30;1.30;;;0.90;;
16242;SDS011;11719;51.052;6.982;2023-12-20T00:56:56;1.63;;;0.83;;
16242;SDS011;11719;51.052;6.982;2023-12-20T00:59:21;4.30;;;1.10;;
16242;SDS011;11719;51.052;6.982;2023-12-20T01:01:47;3.10;;;1.70;;
16242;SDS011;11719;51.052;6.982;2023-12-20T01:04:13;1.30;;;0.80;;
16242;SDS011;11719;51.052;6.982;2023-12-20T01:06:39;1.80;;;1.40;;
16242;SDS011;11719;51.052;6.982;2023-12-20T01:09:10;1.80;;;1.00;;
16242;SDS011;11719;51.052;6.982;2023-12-20T01:11:36;1.63;;;1.30;;
16242;SDS011;11719;51.052;6.982;2023-12-20T01:14:01;1.47;;;0.90;;
16242;SDS011;11719;51.052;6.982;2023-12-20T01:16:27;3.37;;;1.33;;
16242;SDS011;11719;51.052;6.982;2023-12-20T01:18:59;3.47;;;1.67;;
16242;SDS011;11719;51.052;6.982;2023-12-20T01:21:30;2.63;;;1.60;;
16242;SDS011;11719;51.052;6.982;2023-12-20T01:23:56;6.07;;;1.90;;
16242;SDS011;11719;51.052;6.982;2023-12-20T01:26:21;3.70;;;1.70;;
16242;SDS011;11719;51.052;6.982;2023-12-20T01:28:47;3.30;;;1.73;;
16242;SDS011;11719;51.052;6.982;2023-12-20T01:31:15;4.30;;;1.73;;
16242;SDS011;11719;51.052;6.982;2023-12-20T01:33:40;2.43;;;1.63;;
16242;SDS011;11719;51.052;6.982;2023-12-20T01:36:06;3.53;;;2.17;;
16242;SDS011;11719;51.052;6.982;2023-12-20T01:38:32;3.63;;;1.90;;
16242;SDS011;11719;51.052;6.982;2023-12-20T01:40:58;3.93;;;2.53;;
16242;SDS011;11719;51.052;6.982;2023-12-20T01:43:25;4.53;;;2.67;;
16242;SDS011;11719;51.052;6.982;2023-12-20T01:46:04;6.50;;;2.40;;
16242;SDS011;11719;51.052;6.982;2023-12-20T01:48:31;3.90;;;2.60;;
16242;SDS011;11719;51.052;6.982;2023-12-20T01:50:58;5.93;;;2.57;;
16242;SDS011;11719;51.052;6.982;2023-12-20T01:53:25;4.73;;;2.70;;
16242;SDS011;11719;51.052;6.982;2023-12-20T01:55:56;4.07;;;2.70;;
16242;SDS011;11719;51.052;6.982;2023-12-20T01:58:23;3.70;;;2.07;;
16242;SDS011;11719;51.052;6.982;2023-12-20T02:00:50;6.77;;;2.60;;
16242;SDS011;11719;51.052;6.982;2023-12-20T02:03:17;5.13;;;2.37;;
16242;SDS011;11719;51.052;6.982;2023-12-20T02:05:44;3.50;;;2.07;;
16242;SDS011;11719;51.052;6.982;2023-12-20T02:08:10;4.30;;;2.07;;
16242;SDS011;11719;51.052;6.982;2023-12-20T02:10:36;9.40;;;2.90;;
16242;SDS011;11719;51.052;6.982;2023-12-20T02:13:03;5.10;;;2.23;;
16242;SDS011;11719;51.052;6.982;2023-12-20T02:15:29;5.00;;;2.17;;
16242;SDS011;11719;51.052;6.982;2023-12-20T02:17:55;3.47;;;2.30;;
16242;SDS011;11719;51.052;6.982;2023-12-20T02:20:21;2.63;;;1.73;;
16242;SDS011;11719;51.052;6.982;2023-12-20T02:22:47;7.30;;;3.10;;
16242;SDS011;11719;51.052;6.982;2023-12-20T02:25:12;6.43;;;2.37;;
16242;SDS011;11719;51.052;6.982;2023-12-20T02:27:39;7.83;;;2.97;;
16242;SDS011;11719;51.052;6.982;2023-12-20T02:30:05;5.87;;;2.43;;
16242;SDS011;11719;51.052;6.982;2023-12-20T02:32:31;14.20;;;3.00;;
16242;SDS011;11719;51.052;6.982;2023-12-20T02:34:57;4.03;;;2.23;;
16242;SDS011;11719;51.052;6.982;2023-12-20T02:37:23;5.60;;;2.33;;
16242;SDS011;11719;51.052;6.982;2023-12-20T02:39:49;4.97;;;2.60;;
16242;SDS011;11719;51.052;6.982;2023-12-20T02:42:15;5.10;;;2.20;;
16242;SDS011;11719;51.052;6.982;2023-12-20T02:44:41;5.27;;;2.00;;
16242;SDS011;11719;51.052;6.982;2023-12-20T02:47:06;5.77;;;1.90;;
16242;SDS011;11719;51.052;6.982;2023-12-20T02:49:32;6.00;;;1.97;;
16242;SDS011;11719;51.052;6.982;2023-12-20T02:51:59;2.10;;;1.67;;
16242;SDS011;11719;51.052;6.982;2023-12-20T02:54:24;2.43;;;1.30;;
16242;SDS011;11719;51.052;6.982;2023-12-20T02:56:50;4.47;;;1.60;;
16242;SDS011;11719;51.052;6.982;2023-12-20T02:59:16;6.53;;;1.87;;
16242;SDS011;11719;51.052;6.982;2023-12-20T03:01:43;5.50;;;1.43;;
16242;SDS011;11719;51.052;6.982;2023-12-20T03:04:16;5.73;;;1.20;;
16242;SDS011;11719;51.052;6.982;2023-12-20T03:06:42;2.83;;;1.20;;
16242;SDS011;11719;51.052;6.982;2023-12-20T03:09:08;4.93;;;1.47;;
16242;SDS011;11719;51.052;6.982;2023-12-20T03:11:37;6.87;;;1.27;;
16242;SDS011;11719;51.052;6.982;2023-12-20T03:14:08;8.03;;;1.23;;
16242;SDS011;11719;51.052;6.982;2023-12-20T03:16:33;2.73;;;0.97;;
16242;SDS011;11719;51.052;6.982;2023-12-20T03:18:59;2.83;;;0.90;;
16242;SDS011;11719;51.052;6.982;2023-12-20T03:21:25;2.97;;;1.03;;
16242;SDS011;11719;51.052;6.982;2023-12-20T03:23:51;2.50;;;0.80;;
16242;SDS011;11719;51.052;6.982;2023-12-20T03:26:16;7.30;;;0.80;;
16242;SDS011;11719;51.052;6.982;2023-12-20T03:28:42;1.90;;;1.03;;
16242;SDS011;11719;51.052;6.982;2023-12-20T03:31:09;3.23;;;0.90;;
16242;SDS011;11719;51.052;6.982;2023-12-20T03:33:37;1.97;;;0.80;;
16242;SDS011;11719;51.052;6.982;2023-12-20T03:36:03;7.00;;;1.10;;
16242;SDS011;11719;51.052;6.982;2023-12-20T03:38:33;3.73;;;0.90;;
16242;SDS011;11719;51.052;6.982;2023-12-20T03:40:59;8.20;;;1.30;;
16242;SDS011;11719;51.052;6.982;2023-12-20T03:43:25;4.07;;;0.93;;
16242;SDS011;11719;51.052;6.982;2023-12-20T03:45:53;3.40;;;0.90;;
16242;SDS011;11719;51.052;6.982;2023-12-20T03:48:27;1.83;;;0.90;;
16242;SDS011;11719;51.052;6.982;2023-12-20T03:50:53;2.37;;;1.17;;
16242;SDS011;11719;51.052;6.982;2023-12-20T03:53:18;3.50;;;1.20;;
16242;SDS011;11719;51.052;6.982;2023-12-20T03:55:44;3.23;;;0.90;;
16242;SDS011;11719;51.052;6.982;2023-12-20T03:58:10;5.60;;;1.27;;
16242;SDS011;11719;51.052;6.982;2023-12-20T04:00:36;2.80;;;0.97;;
16242;SDS011;11719;51.052;6.982;2023-12-20T04:03:01;4.00;;;1.00;;
16242;SDS011;11719;51.052;6.982;2023-12-20T04:05:27;9.00;;;1.33;;
16242;SDS011;11719;51.052;6.982;2023-12-20T04:07:53;4.63;;;1.07;;
16242;SDS011;11719;51.052;6.982;2023-12-20T04:10:19;2.37;;;1.10;;
16242;SDS011;11719;51.052;6.982;2023-12-20T04:12:45;4.87;;;0.97;;
16242;SDS011;11719;51.052;6.982;2023-12-20T04:15:17;7.30;;;1.10;;
16242;SDS011;11719;51.052;6.982;2023-12-20T04:17:43;6.27;;;1.43;;
16242;SDS011;11719;51.052;6.982;2023-12-20T04:20:09;5.07;;;0.87;;
16242;SDS011;11719;51.052;6.982;2023-12-20T04:22:40;4.87;;;0.97;;
16242;SDS011;11719;51.052;6.982;2023-12-20T04:25:07;5.30;;;1.33;;
16242;SDS011;11719;51.052;6.982;2023-12-20T04:27:33;4.17;;;1.37;;
16242;SDS011;11719;51.052;6.982;2023-12-20T04:29:59;7.07;;;1.20;;
16242;SDS011;11719;51.052;6.982;2023-12-20T04:32:34;7.70;;;1.50;;
16242;SDS011;11719;51.052;6.982;2023-12-20T04:34:59;5.03;;;0.80;;
16242;SDS011;11719;51.052;6.982;2023-12-20T04:37:25;3.13;;;1.10;;
16242;SDS011;11719;51.052;6.982;2023-12-20T04:39:51;2.80;;;0.77;;
16242;SDS011;11719;51.052;6.982;2023-12-20T04:42:17;4.57;;;0.90;;
16242;SDS011;11719;51.052;6.982;2023-12-20T04:44:42;7.03;;;1.43;;
16242;SDS011;11719;51.052;6.982;2023-12-20T04:47:11;3.53;;;1.00;;
16242;SDS011;11719;51.052;6.982;2023-12-20T04:49:37;5.10;;;1.17;;
16242;SDS011;11719;51.052;6.982;2023-12-20T04:52:03;2.23;;;0.93;;
16242;SDS011;11719;51.052;6.982;2023-12-20T04:54:29;8.57;;;2.37;;
16242;SDS011;11719;51.052;6.982;2023-12-20T04:56:54;6.13;;;1.33;;
16242;SDS011;11719;51.052;6.982;2023-12-20T04:59:23;6.07;;;1.40;;
16242;SDS011;11719;51.052;6.982;2023-12-20T05:01:49;5.23;;;1.23;;
16242;SDS011;11719;51.052;6.982;2023-12-20T05:04:14;3.73;;;0.90;;
16242;SDS011;11719;51.052;6.982;2023-12-20T05:06:42;2.10;;;0.97;;
16242;SDS011;11719;51.052;6.982;2023-12-20T05:09:08;1.97;;;1.00;;
16242;SDS011;11719;51.052;6.982;2023-12-20T05:11:34;2.73;;;1.43;;
16242;SDS011;11719;51.052;6.982;2023-12-20T05:14:00;2.40;;;1.37;;
16242;SDS011;11719;51.052;6.982;2023-12-20T05:16:26;10.83;;;2.07;;
16242;SDS011;11719;51.052;6.982;2023-12-20T05:18:51;4.87;;;1.90;;
16242;SDS011;11719;51.052;6.982;2023-12-20T05:21:18;2.60;;;1.30;;
16242;SDS011;11719;51.052;6.982;2023-12-20T05:23:49;3.07;;;1.97;;
16242;SDS011;11719;51.052;6.982;2023-12-20T05:26:15;6.60;;;1.43;;
16242;SDS011;11719;51.052;6.982;2023-12-20T05:28:41;6.47;;;1.23;;
16242;SDS011;11719;51.052;6.982;2023-12-20T05:31:06;5.20;;;1.63;;
16242;SDS011;11719;51.052;6.982;2023-12-20T05:33:41;4.23;;;1.70;;
16242;SDS011;11719;51.052;6.982;2023-12-20T05:36:08;4.87;;;1.40;;
16242;SDS011;11719;51.052;6.982;2023-12-20T05:38:36;6.00;;;1.93;;
16242;SDS011;11719;51.052;6.982;2023-12-20T05:41:02;2.73;;;1.37;;
16242;SDS011;11719;51.052;6.982;2023-12-20T05:43:28;5.90;;;1.53;;
16242;SDS011;11719;51.052;6.982;2023-12-20T05:45:54;2.70;;;1.20;;
16242;SDS011;11719;51.052;6.982;2023-12-20T05:48:20;5.20;;;1.60;;
16242;SDS011;11719;51.052;6.982;2023-12-20T05:50:48;3.53;;;1.07;;
16242;SDS011;11719;51.052;6.982;2023-12-20T05:53:14;3.47;;;1.53;;
16242;SDS011;11719;51.052;6.982;2023-12-20T05:55:40;5.63;;;1.40;;
16242;SDS011;11719;51.052;6.982;2023-12-20T05:58:05;4.73;;;1.47;;
16242;SDS011;11719;51.052;6.982;2023-12-20T06:00:31;3.80;;;1.43;;
16242;SDS011;11719;51.052;6.982;2023-12-20T06:02:57;4.83;;;1.63;;
16242;SDS011;11719;51.052;6.982;2023-12-20T06:05:22;6.77;;;1.60;;
16242;SDS011;11719;51.052;6.982;2023-12-20T06:07:48;6.23;;;1.60;;
16242;SDS011;11719;51.052;6.982;2023-12-20T06:10:15;3.60;;;1.27;;
16242;SDS011;11719;51.052;6.982;2023-12-20T06:12:44;2.73;;;1.20;;
16242;SDS011;11719;51.052;6.982;2023-12-20T06:15:12;4.47;;;1.10;;
16242;SDS011;11719;51.052;6.982;2023-12-20T06:17:41;5.63;;;1.40;;
16242;SDS011;11719;51.052;6.982;2023-12-20T06:20:07;4.33;;;1.20;;
16242;SDS011;11719;51.052;6.982;2023-12-20T06:22:35;3.27;;;1.13;;
16242;SDS011;11719;51.052;6.982;2023-12-20T06:25:01;7.40;;;1.30;;
16242;SDS011;11719;51.052;6.982;2023-12-20T06:27:28;2.30;;;1.07;;
16242;SDS011;11719;51.052;6.982;2023-12-20T06:29:54;7.17;;;1.07;;
16242;SDS011;11719;51.052;6.982;2023-12-20T06:32:19;5.53;;;1.70;;
16242;SDS011;11719;51.052;6.982;2023-12-20T06:34:45;2.20;;;1.17;;
16242;SDS011;11719;51.052;6.982;2023-12-20T06:37:11;4.27;;;1.40;;
16242;SDS011;11719;51.052;6.982;2023-12-20T06:39:40;3.63;;;1.70;;
16242;SDS011;11719;51.052;6.982;2023-12-20T06:42:06;3.10;;;0.97;;
16242;SDS011;11719;51.052;6.982;2023-12-20T06:44:31;4.73;;;1.37;;
16242;SDS011;11719;51.052;6.982;2023-12-20T06:46:57;1.73;;;0.87;;
16242;SDS011;11719;51.052;6.982;2023-12-20T06:49:29;3.97;;;1.40;;
16242;SDS011;11719;51.052;6.982;2023-12-20T06:51:55;4.63;;;1.30;;
16242;SDS011;11719;51.052;6.982;2023-12-20T06:54:21;3.07;;;1.60;;
16242;SDS011;11719;51.052;6.982;2023-12-20T06:56:46;5.23;;;1.00;;
16242;SDS011;11719;51.052;6.982;2023-12-20T06:59:12;4.20;;;1.07;;
16242;SDS011;11719;51.052;6.982;2023-12-20T07:01:45;3.47;;;1.40;;
16242;SDS011;11719;51.052;6.982;2023-12-20T07:04:13;7.93;;;2.03;;
16242;SDS011;11719;51.052;6.982;2023-12-20T07:06:40;6.17;;;1.17;;
16242;SDS011;11719;51.052;6.982;2023-12-20T07:09:06;2.90;;;1.30;;
16242;SDS011;11719;51.052;6.982;2023-12-20T07:11:32;4.00;;;1.20;;
16242;SDS011;11719;51.052;6.982;2023-12-20T07:13:57;5.13;;;1.40;;
16242;SDS011;11719;51.052;6.982;2023-12-20T07:16:23;5.97;;;1.57;;
16242;SDS011;11719;51.052;6.982;2023-12-20T07:18:49;3.10;;;1.57;;
16242;SDS011;11719;51.052;6.982;2023-12-20T07:21:37;4.30;;;1.10;;
16242;SDS011;11719;51.052;6.982;2023-12-20T07:24:02;5.83;;;1.47;;
16242;SDS011;11719;51.052;6.982;2023-12-20T07:26:28;5.93;;;1.27;;
16242;SDS011;11719;51.052;6.982;2023-12-20T07:28:56;6.73;;;1.17;;
16242;SDS011;11719;51.052;6.982;2023-12-20T07:31:33;8.23;;;1.30;;
16242;SDS011;11719;51.052;6.982;2023-12-20T07:33:59;7.03;;;1.63;;
16242;SDS011;11719;51.052;6.982;2023-12-20T07:36:25;6.53;;;1.80;;
16242;SDS011;11719;51.052;6.982;2023-12-20T07:38:51;8.07;;;1.53;;
16242;SDS011;11719;51.052;6.982;2023-12-20T07:41:17;2.27;;;1.20;;
16242;SDS011;11719;51.052;6.982;2023-12-20T07:43:46;8.63;;;1.77;;
16242;SDS011;11719;51.052;6.982;2023-12-20T07:46:23;6.17;;;1.50;;
16242;SDS011;11719;51.052;6.982;2023-12-20T07:48:49;6.57;;;2.10;;
16242;SDS011;11719;51.052;6.982;2023-12-20T07:51:14;5.03;;;1.37;;
16242;SDS011;11719;51.052;6.982;2023-12-20T07:53:41;3.63;;;1.63;;
16242;SDS011;11719;51.052;6.982;2023-12-20T07:56:13;3.83;;;1.37;;
16242;SDS011;11719;51.052;6.982;2023-12-20T07:58:43;6.77;;;2.30;;
16242;SDS011;11719;51.052;6.982;2023-12-20T08:01:10;3.53;;;2.03;;
16242;SDS011;11719;51.052;6.982;2023-12-20T08:03:36;3.73;;;1.67;;
16242;SDS011;11719;51.052;6.982;2023-12-20T08:06:03;3.13;;;1.30;;
16242;SDS011;11719;51.052;6.982;2023-12-20T08:08:29;7.63;;;1.70;;
16242;SDS011;11719;51.052;6.982;2023-12-20T08:10:55;7.63;;;2.13;;
16242;SDS011;11719;51.052;6.982;2023-12-20T08:13:24;6.80;;;1.83;;
16242;SDS011;11719;51.052;6.982;2023-12-20T08:15:51;4.57;;;1.43;;
16242;SDS011;11719;51.052;6.982;2023-12-20T08:18:20;6.17;;;2.07;;
16242;SDS011;11719;51.052;6.982;2023-12-20T08:20:47;5.90;;;1.80;;
16242;SDS011;11719;51.052;6.982;2023-12-20T08:23:13;9.07;;;1.90;;
16242;SDS011;11719;51.052;6.982;2023-12-20T08:25:39;5.80;;;1.40;;
16242;SDS011;11719;51.052;6.982;2023-12-20T08:28:05;5.40;;;1.70;;
16242;SDS011;11719;51.052;6.982;2023-12-20T08:30:31;6.47;;;2.13;;
16242;SDS011;11719;51.052;6.982;2023-12-20T08:32:59;6.50;;;1.40;;
16242;SDS011;11719;51.052;6.982;2023-12-20T08:35:26;3.80;;;1.57;;
16242;SDS011;11719;51.052;6.982;2023-12-20T08:37:52;4.10;;;1.70;;
16242;SDS011;11719;51.052;6.982;2023-12-20T08:40:29;4.53;;;1.30;;
16242;SDS011;11719;51.052;6.982;2023-12-20T08:42:57;9.03;;;1.87;;
16242;SDS011;11719;51.052;6.982;2023-12-20T08:45:25;4.00;;;1.43;;
16242;SDS011;11719;51.052;6.982;2023-12-20T08:47:51;12.20;;;1.83;;
16242;SDS011;11719;51.052;6.982;2023-12-20T08:50:16;5.47;;;1.63;;
16242;SDS011;11719;51.052;6.982;2023-12-20T08:52:43;5.83;;;1.33;;
16242;SDS011;11719;51.052;6.982;2023-12-20T08:55:09;4.33;;;1.20;;
16242;SDS011;11719;51.052;6.982;2023-12-20T08:57:35;4.60;;;2.00;;
16242;SDS011;11719;51.052;6.982;2023-12-20T09:00:01;4.93;;;1.60;;
16242;SDS011;11719;51.052;6.982;2023-12-20T09:02:28;4.87;;;2.00;;
16242;SDS011;11719;51.052;6.982;2023-12-20T09:04:54;1.60;;;1.13;;
16242;SDS011;11719;51.052;6.982;2023-12-20T09:09:52;4.17;;;1.90;;
16242;SDS011;11719;51.052;6.982;2023-12-20T09:12:18;3.80;;;1.33;;
16242;SDS011;11719;51.052;6.982;2023-12-20T09:14:45;2.73;;;1.43;;
16242;SDS011;11719;51.052;6.982;2023-12-20T09:17:12;3.40;;;1.50;;
16242;SDS011;11719;51.052;6.982;2023-12-20T09:19:38;8.10;;;1.67;;
16242;SDS011;11719;51.052;6.982;2023-12-20T09:22:04;2.37;;;1.10;;
16242;SDS011;11719;51.052;6.982;2023-12-20T09:24:31;5.17;;;1.50;;
16242;SDS011;11719;51.052;6.982;2023-12-20T09:26:59;3.07;;;1.60;;
16242;SDS011;11719;51.052;6.982;2023-12-20T09:29:25;6.13;;;1.60;;
16242;SDS011;11719;51.052;6.982;2023-12-20T09:31:50;5.07;;;1.40;;
16242;SDS011;11719;51.052;6.982;2023-12-20T09:34:16;3.30;;;1.30;;
16242;SDS011;11719;51.052;6.982;2023-12-20T09:36:42;4.30;;;1.53;;
16242;SDS011;11719;51.052;6.982;2023-12-20T09:39:18;4.13;;;1.60;;
16242;SDS011;11719;51.052;6.982;2023-12-20T09:41:47;4.60;;;1.73;;
16242;SDS011;11719;51.052;6.982;2023-12-20T09:44:31;5.33;;;1.27;;
16242;SDS011;11719;51.052;6.982;2023-12-20T09:47:03;3.97;;;1.07;;
16242;SDS011;11719;51.052;6.982;2023-12-20T09:49:30;2.33;;;1.03;;
16242;SDS011;11719;51.052;6.982;2023-12-20T09:52:03;7.27;;;1.27;;
16242;SDS011;11719;51.052;6.982;2023-12-20T09:54:32;4.17;;;1.17;;
16242;SDS011;11719;51.052;6.982;2023-12-20T09:57:06;6.30;;;1.40;;
16242;SDS011;11719;51.052;6.982;2023-12-20T09:59:37;6.97;;;2.17;;
16242;SDS011;11719;51.052;6.982;2023-12-20T10:02:02;5.13;;;1.47;;
16242;SDS011;11719;51.052;6.982;2023-12-20T10:07:58;6.07;;;1.50;;
16242;SDS011;11719;51.052;6.982;2023-12-20T10:10:36;5.80;;;1.97;;
16242;SDS011;11719;51.052;6.982;2023-12-20T10:13:11;6.10;;;1.27;;
16242;SDS011;11719;51.052;6.982;2023-12-20T10:15:38;5.20;;;1.50;;
16242;SDS011;11719;51.052;6.982;2023-12-20T10:18:11;5.03;;;1.17;;
16242;SDS011;11719;51.052;6.982;2023-12-20T10:23:58;6.17;;;1.10;;
16242;SDS011;11719;51.052;6.982;2023-12-20T10:26:26;5.57;;;1.13;;
16242;SDS011;11719;51.052;6.982;2023-12-20T10:28:53;3.73;;;1.17;;
16242;SDS011;11719;51.052;6.982;2023-12-20T10:31:45;6.37;;;3.13;;
16242;SDS011;11719;51.052;6.982;2023-12-20T10:34:19;5.10;;;1.00;;
16242;SDS011;11719;51.052;6.982;2023-12-20T10:36:45;7.33;;;1.37;;
16242;SDS011;11719;51.052;6.982;2023-12-20T10:39:19;7.20;;;1.13;;
16242;SDS011;11719;51.052;6.982;2023-12-20T10:41:57;3.13;;;1.07;;
16242;SDS011;11719;51.052;6.982;2023-12-20T10:44:23;3.50;;;0.80;;
16242;SDS011;11719;51.052;6.982;2023-12-20T10:46:57;4.90;;;1.23;;
16242;SDS011;11719;51.052;6.982;2023-12-20T10:49:23;6.93;;;1.67;;
16242;SDS011;11719;51.052;6.982;2023-12-20T10:51:56;6.43;;;1.03;;
16242;SDS011;11719;51.052;6.982;2023-12-20T10:54:25;3.07;;;1.27;;
16242;SDS011;11719;51.052;6.982;2023-12-20T10:56:51;3.63;;;1.47;;
16242;SDS011;11719;51.052;6.982;2023-12-20T10:59:33;4.20;;;1.10;;
16242;SDS011;11719;51.052;6.982;2023-12-20T11:02:17;3.50;;;1.20;;
16242;SDS011;11719;51.052;6.982;2023-12-20T11:04:55;4.00;;;1.47;;
16242;SDS011;11719;51.052;6.982;2023-12-20T11:07:35;2.80;;;0.97;;
16242;SDS011;11719;51.052;6.982;2023-12-20T11:10:10;4.50;;;1.13;;
16242;SDS011;11719;51.052;6.982;2023-12-20T11:12:59;3.23;;;1.03;;
16242;SDS011;11719;51.052;6.982;2023-12-20T11:16:04;4.27;;;1.37;;
16242;SDS011;11719;51.052;6.982;2023-12-20T11:18:40;3.93;;;1.30;;
16242;SDS011;11719;51.052;6.982;2023-12-20T11:21:07;5.40;;;1.23;;
16242;SDS011;11719;51.052;6.982;2023-12-20T11:23:33;4.40;;;0.87;;
16242;SDS011;11719;51.052;6.982;2023-12-20T11:25:59;3.73;;;0.90;;
16242;SDS011;11719;51.052;6.982;2023-12-20T11:28:26;3.97;;;1.00;;
16242;SDS011;11719;51.052;6.982;2023-12-20T11:30:58;4.33;;;1.43;;
16242;SDS011;11719;51.052;6.982;2023-12-20T11:33:26;6.80;;;1.33;;
16242;SDS011;11719;51.052;6.982;2023-12-20T11:35:57;3.20;;;1.37;;
16242;SDS011;11719;51.052;6.982;2023-12-20T11:38:25;5.77;;;1.07;;
16242;SDS011;11719;51.052;6.982;2023-12-20T11:40:53;4.17;;;1.67;;
16242;SDS011;11719;51.052;6.982;2023-12-20T11:43:29;5.67;;;1.20;;
16242;SDS011;11719;51.052;6.982;2023-12-20T11:46:16;1.97;;;0.93;;
16242;SDS011;11719;51.052;6.982;2023-12-20T11:48:42;6.20;;;1.90;;
16242;SDS011;11719;51.052;6.982;2023-12-20T11:51:10;2.50;;;0.90;;
16242;SDS011;11719;51.052;6.982;2023-12-20T11:53:39;7.57;;;1.83;;
16242;SDS011;11719;51.052;6.982;2023-12-20T11:56:07;3.77;;;1.53;;
16242;SDS011;11719;51.052;6.982;2023-12-20T11:58:34;4.87;;;1.87;;
16242;SDS011;11719;51.052;6.982;2023-12-20T12:01:00;5.97;;;1.07;;
16242;SDS011;11719;51.052;6.982;2023-12-20T12:03:38;3.03;;;0.90;;
16242;SDS011;11719;51.052;6.982;2023-12-20T12:06:04;7.47;;;1.30;;
16242;SDS011;11719;51.052;6.982;2023-12-20T12:08:32;6.07;;;1.50;;
16242;SDS011;11719;51.052;6.982;2023-12-20T12:10:58;7.50;;;1.73;;
16242;SDS011;11719;51.052;6.982;2023-12-20T12:13:24;5.53;;;1.20;;
16242;SDS011;11719;51.052;6.982;2023-12-20T12:15:53;1.70;;;1.17;;
16242;SDS011;11719;51.052;6.982;2023-12-20T12:18:18;5.10;;;1.37;;
16242;SDS011;11719;51.052;6.982;2023-12-20T12:20:45;5.03;;;1.50;;
16242;SDS011;11719;51.052;6.982;2023-12-20T12:23:11;5.00;;;1.40;;
16242;SDS011;11719;51.052;6.982;2023-12-20T12:25:37;2.53;;;1.03;;
16242;SDS011;11719;51.052;6.982;2023-12-20T12:28:03;5.23;;;1.70;;
16242;SDS011;11719;51.052;6.982;2023-12-20T12:30:30;3.37;;;1.60;;
16242;SDS011;11719;51.052;6.982;2023-12-20T12:32:56;5.13;;;1.40;;
16242;SDS011;11719;51.052;6.982;2023-12-20T12:35:22;2.93;;;1.30;;
16242;SDS011;11719;51.052;6.982;2023-12-20T12:37:49;3.13;;;1.37;;
16242;SDS011;11719;51.052;6.982;2023-12-20T12:40:17;3.10;;;1.40;;
16242;SDS011;11719;51.052;6.982;2023-12-20T12:42:44;4.90;;;1.57;;
16242;SDS011;11719;51.052;6.982;2023-12-20T12:45:12;5.40;;;1.20;;
16242;SDS011;11719;51.052;6.982;2023-12-20T12:47:47;5.17;;;1.53;;
16242;SDS011;11719;51.052;6.982;2023-12-20T12:50:13;4.87;;;1.20;;
16242;SDS011;11719;51.052;6.982;2023-12-20T12:52:39;6.83;;;1.73;;
16242;SDS011;11719;51.052;6.982;2023-12-20T12:55:05;3.93;;;1.60;;
16242;SDS011;11719;51.052;6.982;2023-12-20T12:57:41;8.10;;;3.10;;
16242;SDS011;11719;51.052;6.982;2023-12-20T13:00:07;7.33;;;1.57;;
16242;SDS011;11719;51.052;6.982;2023-12-20T13:02:34;6.33;;;1.67;;
16242;SDS011;11719;51.052;6.982;2023-12-20T13:05:09;3.53;;;1.00;;
16242;SDS011;11719;51.052;6.982;2023-12-20T13:07:35;4.53;;;1.63;;
16242;SDS011;11719;51.052;6.982;2023-12-20T13:10:02;2.83;;;1.43;;
16242;SDS011;11719;51.052;6.982;2023-12-20T13:12:29;7.00;;;1.60;;
16242;SDS011;11719;51.052;6.982;2023-12-20T13:15:00;5.03;;;1.97;;
16242;SDS011;11719;51.052;6.982;2023-12-20T13:17:26;3.90;;;1.43;;
16242;SDS011;11719;51.052;6.982;2023-12-20T13:19:51;4.57;;;1.53;;
16242;SDS011;11719;51.052;6.982;2023-12-20T13:22:17;4.40;;;1.70;;
16242;SDS011;11719;51.052;6.982;2023-12-20T13:24:43;2.70;;;1.43;;
16242;SDS011;11719;51.052;6.982;2023-12-20T13:27:10;4.37;;;1.20;;
16242;SDS011;11719;51.052;6.982;2023-12-20T13:29:35;9.60;;;1.90;;
16242;SDS011;11719;51.052;6.982;2023-12-20T13:32:01;7.33;;;1.83;;
16242;SDS011;11719;51.052;6.982;2023-12-20T13:34:28;3.60;;;1.87;;
16242;SDS011;11719;51.052;6.982;2023-12-20T13:36:54;5.80;;;1.87;;
16242;SDS011;11719;51.052;6.982;2023-12-20T13:39:21;4.87;;;2.03;;
16242;SDS011;11719;51.052;6.982;2023-12-20T13:41:47;4.63;;;1.60;;
16242;SDS011;11719;51.052;6.982;2023-12-20T13:44:15;10.00;;;1.90;;
16242;SDS011;11719;51.052;6.982;2023-12-20T13:46:41;2.97;;;1.43;;
16242;SDS011;11719;51.052;6.982;2023-12-20T13:49:06;3.77;;;1.43;;
16242;SDS011;11719;51.052;6.982;2023-12-20T13:51:32;2.00;;;1.27;;
16242;SDS011;11719;51.052;6.982;2023-12-20T13:53:58;5.50;;;1.60;;
16242;SDS011;11719;51.052;6.982;2023-12-20T13:56:27;3.83;;;1.33;;
16242;SDS011;11719;51.052;6.982;2023-12-20T13:58:57;2.60;;;1.37;;
16242;SDS011;11719;51.052;6.982;2023-12-20T14:01:23;3.67;;;1.33;;
16242;SDS011;11719;51.052;6.982;2023-12-20T14:03:48;6.63;;;1.67;;
16242;SDS011;11719;51.052;6.982;2023-12-20T14:06:15;1.60;;;0.97;;
16242;SDS011;11719;51.052;6.982;2023-12-20T14:08:41;7.70;;;1.20;;
16242;SDS011;11719;51.052;6.982;2023-12-20T14:11:07;2.60;;;1.50;;
16242;SDS011;11719;51.052;6.982;2023-12-20T14:13:33;3.73;;;1.27;;
16242;SDS011;11719;51.052;6.982;2023-12-20T14:15:59;4.77;;;1.33;;
16242;SDS011;11719;51.052;6.982;2023-12-20T14:18:28;2.33;;;1.37;;
16242;SDS011;11719;51.052;6.982;2023-12-20T14:20:55;3.17;;;1.03;;
16242;SDS011;11719;51.052;6.982;2023-12-20T14:23:31;6.90;;;1.43;;
16242;SDS011;11719;51.052;6.982;2023-12-20T14:25:58;4.03;;;1.57;;
16242;SDS011;11719;51.052;6.982;2023-12-20T14:28:33;3.77;;;1.30;;
16242;SDS011;11719;51.052;6.982;2023-12-20T14:30:59;2.73;;;1.00;;
16242;SDS011;11719;51.052;6.982;2023-12-20T14:33:25;4.57;;;1.33;;
16242;SDS011;11719;51.052;6.982;2023-12-20T14:35:51;3.13;;;1.33;;
16242;SDS011;11719;51.052;6.982;2023-12-20T14:38:17;5.37;;;1.30;;
16242;SDS011;11719;51.052;6.982;2023-12-20T14:40:44;1.10;;;1.00;;
16242;SDS011;11719;51.052;6.982;2023-12-20T14:43:18;4.30;;;1.53;;
16242;SDS011;11719;51.052;6.982;2023-12-20T14:45:44;3.27;;;1.30;;
16242;SDS011;11719;51.052;6.982;2023-12-20T14:48:10;4.13;;;1.57;;
16242;SDS011;11719;51.052;6.982;2023-12-20T14:50:36;2.43;;;1.10;;
16242;SDS011;11719;51.052;6.982;2023-12-20T14:53:02;3.77;;;1.33;;
16242;SDS011;11719;51.052;6.982;2023-12-20T14:55:28;3.03;;;1.00;;
16242;SDS011;11719;51.052;6.982;2023-12-20T14:57:57;3.33;;;1.37;;
16242;SDS011;11719;51.052;6.982;2023-12-20T15:00:30;3.03;;;1.27;;